Time,TemperatureF,DewpointF,PressureIn,WindDirection,WindDirectionDegrees,WindSpeedMPH,WindSpeedGustMPH,Humidity,HourlyPrecipIn,Conditions,Clouds,dailyrainin,SoftwareType,DateUTC
2013-11-06 00:06:00,39.4,37.0,30.50,SE,146,0.0,0.0,90,0.00,,,0.00,weatherlink.com 1.10,2013-11-06 05:06:00,
2013-11-06 00:21:00,39.4,37.0,30.48,SE,146,0.0,0.0,91,0.00,,,0.00,weatherlink.com 1.10,2013-11-06 05:21:00,
2013-11-06 00:36:00,39.7,37.0,30.48,SE,146,0.0,0.0,91,0.00,,,0.00,weatherlink.com 1.10,2013-11-06 05:36:00,
2013-11-06 00:51:00,39.7,37.0,30.48,SE,146,0.0,0.0,91,0.00,,,0.00,weatherlink.com 1.10,2013-11-06 05:51:00,
2013-11-06 01:06:00,39.7,37.0,30.48,SE,146,0.0,0.0,91,0.00,,,0.00,weatherlink.com 1.10,2013-11-06 06:06:00,
2013-11-06 01:21:00,39.7,37.0,30.48,SE,146,0.0,0.0,91,0.00,,,0.00,weatherlink.com 1.10,2013-11-06 06:21:00,
2013-11-06 01:36:00,39.9,38.0,30.47,SE,146,0.0,0.0,92,0.00,,,0.00,weatherlink.com 1.10,2013-11-06 06:36:00,
2013-11-06 01:51:00,39.8,38.0,30.47,SE,146,0.0,0.0,92,0.00,,,0.00,weatherlink.com 1.10,2013-11-06 06:51:00,
2013-11-06 02:06:00,39.8,38.0,30.47,SE,146,0.0,0.0,93,0.00,,,0.00,weatherlink.com 1.10,2013-11-06 07:06:00,
2013-11-06 02:21:00,39.3,37.0,30.46,SE,146,0.0,0.0,92,0.00,,,0.00,weatherlink.com 1.10,2013-11-06 07:21:00,
2013-11-06 02:36:00,38.4,37.0,30.46,SE,146,0.0,0.0,93,0.00,,,0.00,weatherlink.com 1.10,2013-11-06 07:36:00,
2013-11-06 02:51:00,38.1,37.0,30.45,SE,146,0.0,0.0,94,0.00,,,0.00,weatherlink.com 1.10,2013-11-06 07:51:00,
2013-11-06 03:06:00,37.8,37.0,30.45,SE,146,0.0,0.0,95,0.00,,,0.00,weatherlink.com 1.10,2013-11-06 08:06:00,
2013-11-06 03:21:00,37.5,36.0,30.44,SE,146,0.0,0.0,95,0.00,,,0.00,weatherlink.com 1.10,2013-11-06 08:21:00,
2013-11-06 03:36:00,37.4,36.0,30.44,SE,146,0.0,0.0,95,0.00,,,0.00,weatherlink.com 1.10,2013-11-06 08:36:00,
2013-11-06 03:51:00,37.4,36.0,30.44,SE,146,0.0,0.0,95,0.00,,,0.00,weatherlink.com 1.10,2013-11-06 08:51:00,
2013-11-06 04:06:00,37.2,36.0,30.44,SE,146,0.0,0.0,95,0.00,,,0.00,weatherlink.com 1.10,2013-11-06 09:06:00,
2013-11-06 04:22:00,37.4,36.0,30.44,SE,146,0.0,0.0,95,0.00,,,0.00,weatherlink.com 1.10,2013-11-06 09:22:00,
2013-11-06 04:37:00,37.2,36.0,30.44,SE,146,0.0,0.0,95,0.00,,,0.00,weatherlink.com 1.10,2013-11-06 09:37:00,
2013-11-06 04:52:00,37.6,37.0,30.43,SE,146,0.0,0.0,96,0.00,,,0.00,weatherlink.com 1.10,2013-11-06 09:52:00,
2013-11-06 05:07:00,37.1,36.0,30.43,SE,146,0.0,0.0,96,0.00,,,0.00,weatherlink.com 1.10,2013-11-06 10:07:00,
2013-11-06 05:22:00,37.0,36.0,30.43,SE,146,0.0,0.0,96,0.00,,,0.00,weatherlink.com 1.10,2013-11-06 10:22:00,
2013-11-06 05:37:00,37.5,37.0,30.43,SE,146,0.0,0.0,97,0.00,,,0.00,weatherlink.com 1.10,2013-11-06 10:37:00,
2013-11-06 05:52:00,37.1,36.0,30.42,SE,146,0.0,0.0,96,0.00,,,0.00,weatherlink.com 1.10,2013-11-06 10:52:00,
2013-11-06 06:07:00,36.5,36.0,30.42,SE,146,0.0,0.0,96,0.00,,,0.00,weatherlink.com 1.10,2013-11-06 11:07:00,
2013-11-06 06:22:00,36.7,36.0,30.42,SE,146,0.0,0.0,97,0.00,,,0.00,weatherlink.com 1.10,2013-11-06 11:22:00,
2013-11-06 06:37:00,36.9,36.0,30.42,SE,146,0.0,0.0,97,0.00,,,0.00,weatherlink.com 1.10,2013-11-06 11:37:00,
2013-11-06 06:52:00,36.5,36.0,30.42,SE,146,0.0,0.0,97,0.00,,,0.00,weatherlink.com 1.10,2013-11-06 11:52:00,
2013-11-06 07:07:00,36.7,36.0,30.42,SE,146,0.0,0.0,97,0.00,,,0.00,weatherlink.com 1.10,2013-11-06 12:07:00,
2013-11-06 07:22:00,37.2,37.0,30.41,SE,146,0.0,0.0,98,0.00,,,0.00,weatherlink.com 1.10,2013-11-06 12:22:00,
2013-11-06 07:37:00,37.9,37.0,30.41,SE,146,0.0,0.0,98,0.00,,,0.00,weatherlink.com 1.10,2013-11-06 12:37:00,
2013-11-06 07:52:00,38.7,38.0,30.41,SE,146,0.0,0.0,98,0.00,,,0.00,weatherlink.com 1.10,2013-11-06 12:52:00,
2013-11-06 08:07:00,39.3,39.0,30.41,SE,146,0.0,0.0,98,0.00,,,0.00,weatherlink.com 1.10,2013-11-06 13:07:00,
2013-11-06 08:22:00,40.8,40.0,30.41,SE,146,0.0,0.0,98,0.00,,,0.00,weatherlink.com 1.10,2013-11-06 13:22:00,
2013-11-06 08:37:00,42.5,42.0,30.40,SE,143,0.0,0.0,98,0.00,,,0.00,weatherlink.com 1.10,2013-11-06 13:37:00,
2013-11-06 08:52:00,45.2,43.0,30.39,SSE,150,0.0,0.0,93,0.00,,,0.00,weatherlink.com 1.10,2013-11-06 13:52:00,
2013-11-06 09:07:00,48.4,46.0,30.39,SSE,153,0.0,1.0,90,0.00,,,0.00,weatherlink.com 1.10,2013-11-06 14:07:00,
2013-11-06 09:22:00,50.7,46.0,30.38,SSE,158,0.0,3.0,84,0.00,,,0.00,weatherlink.com 1.10,2013-11-06 14:22:00,
2013-11-06 09:37:00,52.0,46.0,30.37,SSE,150,0.0,4.0,81,0.00,,,0.00,weatherlink.com 1.10,2013-11-06 14:37:00,
2013-11-06 09:52:00,53.4,46.0,30.37,South,175,3.0,3.0,76,0.00,,,0.00,weatherlink.com 1.10,2013-11-06 14:52:00,
2013-11-06 10:07:00,54.1,46.0,30.36,SE,129,0.0,4.0,73,0.00,,,0.00,weatherlink.com 1.10,2013-11-06 15:07:00,
2013-11-06 10:22:00,54.9,45.0,30.36,South,177,1.0,4.0,70,0.00,,,0.00,weatherlink.com 1.10,2013-11-06 15:22:00,
2013-11-06 10:37:00,55.5,45.0,30.36,East,98,0.0,3.0,69,0.00,,,0.00,weatherlink.com 1.10,2013-11-06 15:37:00,
2013-11-06 10:52:00,56.0,46.0,30.36,SE,133,0.0,2.0,68,0.00,,,0.00,weatherlink.com 1.10,2013-11-06 15:52:00,
2013-11-06 11:08:00,56.3,46.0,30.34,SE,146,1.0,3.0,68,0.00,,,0.00,weatherlink.com 1.10,2013-11-06 16:08:00,
2013-11-06 11:23:00,57.1,45.0,30.33,WSW,255,1.0,3.0,65,0.00,,,0.00,weatherlink.com 1.10,2013-11-06 16:23:00,
2013-11-06 11:38:00,57.6,45.0,30.32,SSW,198,0.0,4.0,64,0.00,,,0.00,weatherlink.com 1.10,2013-11-06 16:38:00,
2013-11-06 11:53:00,58.1,45.0,30.30,South,170,2.0,3.0,63,0.00,,,0.00,weatherlink.com 1.10,2013-11-06 16:53:00,
2013-11-06 12:08:00,58.3,45.0,30.30,SSE,152,1.0,3.0,62,0.00,,,0.00,weatherlink.com 1.10,2013-11-06 17:08:00,
2013-11-06 12:23:00,58.4,46.0,30.29,South,183,0.0,3.0,63,0.00,,,0.00,weatherlink.com 1.10,2013-11-06 17:23:00,
2013-11-06 12:38:00,57.9,45.0,30.28,East,90,0.0,4.0,63,0.00,,,0.00,weatherlink.com 1.10,2013-11-06 17:38:00,
2013-11-06 12:53:00,58.2,46.0,30.27,South,169,2.0,2.0,64,0.00,,,0.00,weatherlink.com 1.10,2013-11-06 17:53:00,
2013-11-06 13:08:00,58.2,45.0,30.27,SSE,159,1.0,3.0,63,0.00,,,0.00,weatherlink.com 1.10,2013-11-06 18:08:00,
2013-11-06 13:23:00,58.3,45.0,30.26,SSE,153,0.0,3.0,62,0.00,,,0.00,weatherlink.com 1.10,2013-11-06 18:23:00,
2013-11-06 13:38:00,58.4,46.0,30.26,SSE,160,0.0,3.0,63,0.00,,,0.00,weatherlink.com 1.10,2013-11-06 18:38:00,
2013-11-06 13:54:00,58.4,45.0,30.25,SE,143,1.0,3.0,62,0.00,,,0.00,weatherlink.com 1.10,2013-11-06 18:54:00,
2013-11-06 14:08:00,58.3,46.0,30.25,SE,129,1.0,2.0,63,0.00,,,0.00,weatherlink.com 1.10,2013-11-06 19:08:00,
2013-11-06 14:23:00,58.1,45.0,30.24,SSE,148,0.0,3.0,63,0.00,,,0.00,weatherlink.com 1.10,2013-11-06 19:23:00,
2013-11-06 14:53:00,58.1,46.0,30.24,SSE,166,0.0,2.0,64,0.00,,,0.00,weatherlink.com 1.10,2013-11-06 19:53:00,
2013-11-06 15:08:00,57.5,45.0,30.24,South,174,2.0,3.0,64,0.00,,,0.00,weatherlink.com 1.10,2013-11-06 20:08:00,
2013-11-06 15:23:00,57.1,45.0,30.24,SSE,167,0.0,1.0,65,0.00,,,0.00,weatherlink.com 1.10,2013-11-06 20:23:00,
2013-11-06 15:38:00,56.9,45.0,30.24,SSE,162,0.0,3.0,65,0.00,,,0.00,weatherlink.com 1.10,2013-11-06 20:38:00,
2013-11-06 15:53:00,56.8,45.0,30.23,SE,130,0.0,3.0,64,0.00,,,0.00,weatherlink.com 1.10,2013-11-06 20:53:00,
2013-11-06 16:08:00,56.5,45.0,30.23,ENE,61,0.0,1.0,65,0.00,,,0.00,weatherlink.com 1.10,2013-11-06 21:08:00,
2013-11-06 16:23:00,56.2,46.0,30.23,South,183,0.0,3.0,68,0.00,,,0.00,weatherlink.com 1.10,2013-11-06 21:23:00,
2013-11-06 16:38:00,55.7,46.0,30.22,SSE,165,0.0,2.0,70,0.00,,,0.00,weatherlink.com 1.10,2013-11-06 21:38:00,
2013-11-06 16:53:00,55.3,46.0,30.21,SSE,159,0.0,2.0,72,0.00,,,0.00,weatherlink.com 1.10,2013-11-06 21:53:00,
2013-11-06 17:08:00,54.9,47.0,30.20,ESE,108,0.0,1.0,74,0.00,,,0.00,weatherlink.com 1.10,2013-11-06 22:08:00,
2013-11-06 17:23:00,54.3,47.0,30.20,South,173,0.0,2.0,75,0.00,,,0.00,weatherlink.com 1.10,2013-11-06 22:23:00,
2013-11-06 17:38:00,53.6,47.0,30.20,SSW,203,0.0,2.0,78,0.00,,,0.00,weatherlink.com 1.10,2013-11-06 22:38:00,
2013-11-06 17:53:00,52.8,47.0,30.19,SSE,154,0.0,2.0,81,0.00,,,0.00,weatherlink.com 1.10,2013-11-06 22:53:00,
2013-11-06 18:08:00,51.9,47.0,30.20,West,271,0.0,1.0,84,0.00,,,0.00,weatherlink.com 1.10,2013-11-06 23:08:00,
2013-11-06 18:23:00,51.4,47.0,30.20,SW,223,0.0,1.0,86,0.00,,,0.00,weatherlink.com 1.10,2013-11-06 23:23:00,
2013-11-06 18:38:00,51.2,48.0,30.18,SSW,196,0.0,1.0,87,0.00,,,0.00,weatherlink.com 1.10,2013-11-06 23:38:00,
2013-11-06 18:54:00,50.7,47.0,30.18,SSW,196,0.0,0.0,88,0.00,,,0.00,weatherlink.com 1.10,2013-11-06 23:54:00,
2013-11-06 19:08:00,50.1,47.0,30.17,SSW,197,0.0,0.0,90,0.00,,,0.00,weatherlink.com 1.10,2013-11-07 00:08:00,
2013-11-06 19:23:00,49.8,47.0,30.17,SSW,196,0.0,0.0,91,0.00,,,0.00,weatherlink.com 1.10,2013-11-07 00:23:00,
2013-11-06 19:39:00,49.9,48.0,30.16,SSW,193,0.0,0.0,93,0.00,,,0.00,weatherlink.com 1.10,2013-11-07 00:39:00,
2013-11-06 19:54:00,50.1,48.0,30.15,SSW,193,0.0,0.0,93,0.00,,,0.00,weatherlink.com 1.10,2013-11-07 00:54:00,
2013-11-06 20:09:00,50.1,49.0,30.15,SSW,193,0.0,0.0,94,0.00,,,0.00,weatherlink.com 1.10,2013-11-07 01:09:00,
2013-11-06 20:24:00,50.0,48.0,30.15,SSW,193,0.0,0.0,94,0.00,,,0.00,weatherlink.com 1.10,2013-11-07 01:24:00,
2013-11-06 20:39:00,49.6,48.0,30.14,SSW,193,0.0,0.0,94,0.00,,,0.00,weatherlink.com 1.10,2013-11-07 01:39:00,
2013-11-06 20:54:00,49.3,48.0,30.13,SSW,193,0.0,0.0,95,0.00,,,0.00,weatherlink.com 1.10,2013-11-07 01:54:00,
2013-11-06 21:09:00,49.3,48.0,30.13,SSW,193,0.0,0.0,96,0.00,,,0.00,weatherlink.com 1.10,2013-11-07 02:09:00,
2013-11-06 21:24:00,49.3,48.0,30.12,SSW,193,0.0,0.0,96,0.00,,,0.00,weatherlink.com 1.10,2013-11-07 02:24:00,
2013-11-06 21:39:00,49.1,48.0,30.12,SSW,193,0.0,0.0,96,0.00,,,0.00,weatherlink.com 1.10,2013-11-07 02:39:00,
2013-11-06 21:54:00,48.9,48.0,30.12,SSW,193,0.0,0.0,97,0.00,,,0.00,weatherlink.com 1.10,2013-11-07 02:54:00,
2013-11-06 22:09:00,48.8,48.0,30.10,SSW,193,0.0,0.0,97,0.00,,,0.00,weatherlink.com 1.10,2013-11-07 03:09:00,
2013-11-06 22:24:00,48.7,48.0,30.10,SSW,193,0.0,0.0,97,0.00,,,0.00,weatherlink.com 1.10,2013-11-07 03:24:00,
2013-11-06 22:39:00,49.0,48.0,30.09,SSW,193,0.0,0.0,97,0.00,,,0.00,weatherlink.com 1.10,2013-11-07 03:39:00,
2013-11-06 22:54:00,49.7,49.0,30.08,SSE,148,0.0,1.0,98,0.00,,,0.00,weatherlink.com 1.10,2013-11-07 03:54:00,
2013-11-06 23:09:00,50.3,50.0,30.07,SSE,148,0.0,0.0,98,0.00,,,0.00,weatherlink.com 1.10,2013-11-07 04:09:00,
2013-11-06 23:24:00,50.8,50.0,30.07,SSE,162,0.0,1.0,98,0.00,,,0.00,weatherlink.com 1.10,2013-11-07 04:24:00,
2013-11-06 23:39:00,51.7,51.0,30.06,SSE,163,0.0,1.0,98,0.00,,,0.00,weatherlink.com 1.10,2013-11-07 04:39:00,
2013-11-06 23:54:00,52.5,52.0,30.05,SSE,157,0.0,2.0,98,0.00,,,0.00,weatherlink.com 1.10,2013-11-07 04:54:00,